KPOC/POC METAR and TAF weather

Enter ICAO airport designator
Station Type Date Time Source
KPOC METAR 2020/12/06 01:47 UTC NOAA

KPOC 060147Z 00000KT 10SM CLR 13/M09 A3024 RMK LAST


Station Type Date Time Source
KPOC Decoded METAR 2020/12/06 01:47 UTC NOAA

La Verne / Brackett, CA, United States (KPOC) 34-06N 117-47W
Dec 05, 2020 - 08:47 PM EST / 2020.12.06 0147 UTC
Wind: Calm:0
Visibility: 10 mile(s):0
Sky conditions: clear
Temperature: 55 F (13 C)
Dew Point: 15 F (-9 C)
Relative Humidity: 20%
Pressure (altimeter): 30.24 in. Hg (1024 hPa)
ob: KPOC 060147Z 00000KT 10SM CLR 13/M09 A3024 RMK LAST
cycle: 2

Station Type Date Time Source
KPOC TAF UTC NOAA

Error!

Example: see airport list